createdAt,value
2018-02-27T00:00:02.803Z,0
2018-02-27T00:01:17.298Z,0
2018-02-27T00:02:31.099Z,0
2018-02-27T00:03:45.092Z,0
2018-02-27T00:04:59.684Z,0
2018-02-27T00:06:13.678Z,0
2018-02-27T00:07:27.934Z,0
2018-02-27T00:08:42.264Z,0
2018-02-27T00:09:56.271Z,0
2018-02-27T00:11:10.254Z,0
2018-02-27T00:12:24.292Z,0
2018-02-27T00:13:38.772Z,0
2018-02-27T00:14:53.555Z,0
2018-02-27T00:16:07.305Z,0
2018-02-27T00:17:21.309Z,0
2018-02-27T00:18:35.320Z,0
2018-02-27T00:19:49.522Z,0
2018-02-27T00:21:04.000Z,0
2018-02-27T00:22:18.038Z,0
2018-02-27T00:23:32.049Z,0
2018-02-27T00:24:46.035Z,0
2018-02-27T00:25:59.796Z,0
2018-02-27T00:27:13.313Z,0
2018-02-27T00:28:27.069Z,0
2018-02-27T00:29:40.855Z,0
2018-02-27T00:30:54.853Z,0
2018-02-27T00:32:09.337Z,0
2018-02-27T00:33:22.893Z,0
2018-02-27T00:34:36.889Z,0
2018-02-27T00:35:49.890Z,0
2018-02-27T00:37:04.417Z,0
2018-02-27T00:38:18.563Z,0
2018-02-27T00:39:32.615Z,0
2018-02-27T00:40:46.372Z,0
2018-02-27T00:41:59.675Z,0
2018-02-27T00:43:14.158Z,0
2018-02-27T00:44:27.881Z,0
2018-02-27T00:45:42.419Z,0
2018-02-27T00:46:56.397Z,0
2018-02-27T00:48:09.925Z,0
2018-02-27T00:49:24.156Z,0
2018-02-27T00:50:38.132Z,0
2018-02-27T00:51:52.427Z,0
2018-02-27T00:53:06.921Z,0
2018-02-27T00:54:21.150Z,0
2018-02-27T00:55:35.364Z,0
2018-02-27T00:56:49.608Z,0
2018-02-27T00:58:03.886Z,0
2018-02-27T00:59:18.120Z,0
2018-02-27T01:00:32.837Z,0
2018-02-27T01:01:47.335Z,0
2018-02-27T01:03:01.325Z,0
2018-02-27T01:04:15.562Z,0
2018-02-27T01:05:29.289Z,0
2018-02-27T01:06:42.993Z,0
2018-02-27T01:07:57.335Z,0
2018-02-27T01:09:11.337Z,0
2018-02-27T01:10:25.895Z,0
2018-02-27T01:11:40.007Z,0
2018-02-27T01:12:54.244Z,0
2018-02-27T01:14:08.985Z,0
2018-02-27T01:15:23.213Z,0
2018-02-27T01:16:37.306Z,0
2018-02-27T01:17:51.006Z,0
2018-02-27T01:19:05.013Z,0
2018-02-27T01:20:19.015Z,0
2018-02-27T01:21:33.739Z,0
2018-02-27T01:22:48.028Z,0
2018-02-27T01:24:01.853Z,0
2018-02-27T01:25:16.102Z,0
2018-02-27T01:26:30.840Z,0
2018-02-27T01:27:45.564Z,0
2018-02-27T01:28:59.845Z,0
2018-02-27T01:30:13.857Z,0
2018-02-27T01:31:27.585Z,0
2018-02-27T01:32:42.061Z,0
2018-02-27T01:33:56.529Z,0
2018-02-27T01:35:10.824Z,0
2018-02-27T01:36:25.301Z,0
2018-02-27T01:37:39.745Z,0
2018-02-27T01:38:53.975Z,0
2018-02-27T01:40:08.215Z,0
2018-02-27T01:41:22.460Z,0
2018-02-27T01:42:36.457Z,0
2018-02-27T01:43:50.945Z,0
2018-02-27T01:45:04.818Z,0
2018-02-27T01:46:18.812Z,0
2018-02-27T01:47:32.790Z,0
2018-02-27T01:48:46.773Z,0
2018-02-27T01:50:00.746Z,0
2018-02-27T01:51:14.511Z,0
2018-02-27T01:52:28.312Z,0
2018-02-27T01:53:42.349Z,0
2018-02-27T01:54:56.831Z,0
2018-02-27T01:56:11.567Z,0
2018-02-27T01:57:25.334Z,0
2018-02-27T01:58:39.564Z,0
2018-02-27T01:59:54.351Z,0
2018-02-27T02:01:09.130Z,0
2018-02-27T02:02:23.643Z,0
2018-02-27T02:03:37.946Z,0
2018-02-27T02:04:51.933Z,0
2018-02-27T02:06:06.206Z,0
2018-02-27T02:07:20.938Z,0
2018-02-27T02:08:35.159Z,0
2018-02-27T02:09:48.891Z,0
2018-02-27T02:11:02.361Z,0
2018-02-27T02:12:16.088Z,0
2018-02-27T02:13:30.593Z,0
2018-02-27T02:14:44.589Z,0
2018-02-27T02:15:59.295Z,0
2018-02-27T02:17:13.543Z,0
2018-02-27T02:18:27.677Z,0
2018-02-27T02:19:42.263Z,0
2018-02-27T02:20:56.474Z,0
2018-02-27T02:22:10.302Z,0
2018-02-27T02:23:24.024Z,0
2018-02-27T02:24:39.044Z,0
2018-02-27T02:25:53.016Z,0
2018-02-27T02:27:07.022Z,0
2018-02-27T02:28:21.768Z,0
2018-02-27T02:29:35.518Z,0
2018-02-27T02:30:50.062Z,0
2018-02-27T02:32:04.043Z,0
2018-02-27T02:33:18.286Z,0
2018-02-27T02:34:32.561Z,0
2018-02-27T02:35:46.828Z,0
2018-02-27T02:37:01.110Z,0
2018-02-27T02:38:15.502Z,0
2018-02-27T02:39:29.980Z,0
2018-02-27T02:40:44.206Z,0
2018-02-27T02:41:57.718Z,0
2018-02-27T02:43:12.039Z,0
2018-02-27T02:44:26.511Z,0
2018-02-27T02:45:40.986Z,0
2018-02-27T02:46:55.221Z,0
2018-02-27T02:48:09.176Z,0
2018-02-27T02:49:38.357Z,0
2018-02-27T02:50:52.611Z,0
2018-02-27T02:52:06.900Z,0
2018-02-27T02:53:20.897Z,0
2018-02-27T02:54:34.180Z,0
2018-02-27T02:55:49.219Z,0
2018-02-27T02:57:02.745Z,0
2018-02-27T02:58:16.746Z,0
2018-02-27T02:59:31.666Z,0
2018-02-27T03:00:45.718Z,0
2018-02-27T03:01:59.692Z,0
2018-02-27T03:03:14.481Z,0
2018-02-27T03:04:28.983Z,0
2018-02-27T03:05:43.489Z,0
2018-02-27T03:06:57.477Z,0
2018-02-27T03:08:12.011Z,0
2018-02-27T03:09:26.300Z,0
2018-02-27T03:10:40.064Z,0
2018-02-27T03:11:54.535Z,0
2018-02-27T03:13:09.055Z,0
2018-02-27T03:14:23.588Z,0
2018-02-27T03:15:37.868Z,0
2018-02-27T03:16:52.075Z,0
2018-02-27T03:18:06.582Z,0
2018-02-27T03:19:20.799Z,0
2018-02-27T03:20:35.615Z,0
2018-02-27T03:21:50.098Z,0
2018-02-27T03:23:04.355Z,0
2018-02-27T03:24:18.483Z,0
2018-02-27T03:25:32.449Z,0
2018-02-27T03:26:47.248Z,0
2018-02-27T03:28:01.248Z,0
2018-02-27T03:29:15.487Z,0
2018-02-27T03:30:30.246Z,0
2018-02-27T03:31:44.233Z,0
2018-02-27T03:32:58.075Z,0
2018-02-27T03:34:12.078Z,0
2018-02-27T03:35:26.554Z,0
2018-02-27T03:36:40.794Z,0
2018-02-27T03:37:55.278Z,0
2018-02-27T03:39:09.748Z,0
2018-02-27T03:40:23.715Z,0
2018-02-27T03:41:37.171Z,0
2018-02-27T03:42:51.126Z,0
2018-02-27T03:44:05.337Z,0
2018-02-27T03:45:19.603Z,0
2018-02-27T03:46:33.586Z,0
2018-02-27T03:47:47.559Z,0
2018-02-27T03:49:01.807Z,0
2018-02-27T03:50:16.035Z,0
2018-02-27T03:51:30.028Z,0
2018-02-27T03:52:44.260Z,0
2018-02-27T03:53:58.006Z,0
2018-02-27T03:55:12.488Z,0
2018-02-27T03:56:26.494Z,0
2018-02-27T03:57:41.361Z,0
2018-02-27T03:58:54.908Z,0
2018-02-27T04:00:09.150Z,0
2018-02-27T04:01:23.665Z,0
2018-02-27T04:02:37.908Z,0
2018-02-27T04:03:52.202Z,0
2018-02-27T04:05:06.941Z,0
2018-02-27T04:06:20.724Z,0
2018-02-27T04:07:35.189Z,0
2018-02-27T04:08:49.633Z,0
2018-02-27T04:10:03.892Z,0
2018-02-27T04:11:18.177Z,0
2018-02-27T04:12:32.131Z,0
2018-02-27T04:13:46.616Z,0
2018-02-27T04:15:00.598Z,0
2018-02-27T04:16:15.189Z,0
2018-02-27T04:17:29.716Z,0
2018-02-27T04:18:44.188Z,0
2018-02-27T04:19:57.987Z,0
2018-02-27T04:21:11.742Z,0
2018-02-27T04:22:25.577Z,0
2018-02-27T04:23:39.838Z,0
2018-02-27T04:24:53.579Z,0
2018-02-27T04:26:07.395Z,0
2018-02-27T04:27:20.929Z,0
2018-02-27T04:28:35.733Z,0
2018-02-27T04:29:50.001Z,0
2018-02-27T04:31:04.113Z,0
2018-02-27T04:32:18.231Z,0
2018-02-27T04:33:32.609Z,0
2018-02-27T04:34:46.432Z,0
2018-02-27T04:36:00.236Z,0
2018-02-27T04:37:15.067Z,0
2018-02-27T04:39:27.950Z,0
2018-02-27T04:40:42.965Z,0
2018-02-27T04:41:57.201Z,0
2018-02-27T04:43:11.452Z,0
2018-02-27T04:44:25.622Z,0
2018-02-27T04:45:39.700Z,0
2018-02-27T04:46:53.783Z,0
2018-02-27T04:48:07.785Z,0
2018-02-27T04:49:21.814Z,0
2018-02-27T04:50:35.820Z,0
2018-02-27T04:51:50.300Z,0
2018-02-27T04:53:04.372Z,0
2018-02-27T04:54:18.194Z,0
2018-02-27T04:55:32.229Z,0
2018-02-27T04:56:46.762Z,0
2018-02-27T04:58:00.743Z,0
2018-02-27T04:59:14.483Z,0
2018-02-27T05:00:28.486Z,0
2018-02-27T05:01:42.976Z,0
2018-02-27T05:02:57.491Z,0
2018-02-27T05:04:11.832Z,0
2018-02-27T05:05:26.146Z,0
2018-02-27T05:06:40.635Z,0
2018-02-27T05:07:55.342Z,0
2018-02-27T05:09:09.564Z,0
2018-02-27T05:10:23.308Z,0
2018-02-27T05:11:37.595Z,0
2018-02-27T05:12:51.627Z,0
2018-02-27T05:14:04.925Z,0
2018-02-27T05:15:19.240Z,0
2018-02-27T05:16:33.277Z,0
2018-02-27T05:17:47.393Z,0
2018-02-27T05:19:01.433Z,0
2018-02-27T05:20:15.669Z,0
2018-02-27T05:21:30.145Z,0
2018-02-27T05:22:44.381Z,0
2018-02-27T05:23:58.677Z,0
2018-02-27T05:25:12.484Z,0
2018-02-27T05:26:26.222Z,0
2018-02-27T05:27:40.448Z,0
2018-02-27T05:28:54.447Z,0
2018-02-27T05:30:08.520Z,0
2018-02-27T05:31:22.305Z,0
2018-02-27T05:32:36.059Z,0
2018-02-27T05:33:49.815Z,0
2018-02-27T05:35:04.548Z,0
2018-02-27T05:36:18.873Z,0
2018-02-27T05:37:32.968Z,0
2018-02-27T05:38:46.955Z,0
2018-02-27T05:40:01.219Z,0
2018-02-27T05:41:14.721Z,0
2018-02-27T05:42:29.274Z,0
2018-02-27T05:43:43.785Z,0
2018-02-27T05:44:57.549Z,0
2018-02-27T05:46:11.287Z,4
2018-02-27T05:47:25.761Z,0
2018-02-27T05:48:40.055Z,4
2018-02-27T05:49:54.086Z,0
2018-02-27T05:51:08.123Z,4
2018-02-27T05:52:22.407Z,4
2018-02-27T05:53:35.921Z,4
2018-02-27T05:54:50.254Z,8
2018-02-27T05:56:04.523Z,8
2018-02-27T05:57:19.038Z,12
2018-02-27T05:58:32.817Z,16
2018-02-27T05:59:46.926Z,20
2018-02-27T06:01:01.392Z,20
2018-02-27T06:02:15.631Z,28
2018-02-27T06:03:29.653Z,32
2018-02-27T06:04:43.949Z,36
2018-02-27T06:05:57.497Z,44
2018-02-27T06:07:11.845Z,48
2018-02-27T06:08:25.864Z,56
2018-02-27T06:09:40.113Z,64
2018-02-27T06:10:54.291Z,72
2018-02-27T06:12:08.810Z,80
2018-02-27T06:13:23.118Z,92
2018-02-27T06:14:37.399Z,100
2018-02-27T06:15:51.699Z,116
2018-02-27T06:17:05.707Z,124
2018-02-27T06:18:19.997Z,140
2018-02-27T06:19:34.111Z,152
2018-02-27T06:20:48.404Z,172
2018-02-27T06:22:02.395Z,184
2018-02-27T06:23:31.111Z,208
2018-02-27T06:24:45.323Z,224
2018-02-27T06:25:59.379Z,240
2018-02-27T06:27:13.627Z,256
2018-02-27T06:28:28.085Z,268
2018-02-27T06:29:41.624Z,280
2018-02-27T06:30:55.903Z,296
2018-02-27T06:32:10.194Z,316
2018-02-27T06:33:24.264Z,336
2018-02-27T06:34:38.282Z,356
2018-02-27T06:35:52.536Z,380
2018-02-27T06:37:07.249Z,400
2018-02-27T06:38:21.797Z,428
2018-02-27T06:39:36.321Z,456
2018-02-27T06:40:50.851Z,488
2018-02-27T06:42:05.368Z,512
2018-02-27T06:43:19.708Z,540
2018-02-27T06:44:34.016Z,560
2018-02-27T06:45:48.270Z,584
2018-02-27T06:47:02.758Z,612
2018-02-27T06:48:17.072Z,640
2018-02-27T06:49:31.377Z,672
2018-02-27T06:50:46.428Z,708
2018-02-27T06:51:59.976Z,740
2018-02-27T06:53:14.255Z,764
2018-02-27T06:54:28.009Z,788
2018-02-27T06:56:56.319Z,824
2018-02-27T06:58:10.086Z,840
2018-02-27T06:59:24.323Z,852
2018-02-27T07:00:38.342Z,852
2018-02-27T07:01:52.333Z,848
2018-02-27T07:03:06.065Z,836
2018-02-27T07:04:20.078Z,816
2018-02-27T07:05:34.128Z,804
2018-02-27T07:06:48.375Z,812
2018-02-27T07:08:02.591Z,832
2018-02-27T07:09:17.389Z,856
2018-02-27T07:10:31.624Z,876
2018-02-27T07:11:46.100Z,884
2018-02-27T07:12:59.863Z,872
2018-02-27T07:14:13.879Z,864
2018-02-27T07:15:28.390Z,860
2018-02-27T07:16:42.258Z,856
2018-02-27T07:17:56.034Z,864
2018-02-27T07:19:10.351Z,872
2018-02-27T07:20:24.632Z,876
2018-02-27T07:21:38.679Z,880
2018-02-27T07:22:52.939Z,888
2018-02-27T07:24:06.949Z,904
2018-02-27T07:25:21.429Z,924
2018-02-27T07:26:35.935Z,948
2018-02-27T07:27:50.979Z,976
2018-02-27T07:29:04.728Z,1004
2018-02-27T07:30:19.095Z,1020
2018-02-27T07:31:32.858Z,1048
2018-02-27T07:32:46.329Z,1084
2018-02-27T07:34:00.861Z,1120
2018-02-27T07:35:14.638Z,1160
2018-02-27T07:36:29.024Z,1196
2018-02-27T07:37:43.505Z,1240
2018-02-27T07:38:57.737Z,1288
2018-02-27T07:40:12.017Z,1324
2018-02-27T07:41:26.010Z,1344
2018-02-27T07:42:40.252Z,1360
2018-02-27T07:43:54.530Z,1376
2018-02-27T07:45:08.806Z,1388
2018-02-27T07:46:23.085Z,1396
2018-02-27T07:47:37.082Z,1412
2018-02-27T07:48:51.836Z,1424
2018-02-27T07:50:06.413Z,1432
2018-02-27T07:51:20.663Z,1440
2018-02-27T07:52:35.323Z,1456
2018-02-27T07:53:49.129Z,1468
2018-02-27T07:55:03.690Z,1480
2018-02-27T07:56:17.475Z,1492
2018-02-27T07:57:31.698Z,1504
2018-02-27T07:58:46.480Z,1508
2018-02-27T08:00:00.471Z,1512
2018-02-27T08:01:14.465Z,1520
2018-02-27T08:02:28.485Z,1528
2018-02-27T08:03:42.455Z,1528
2018-02-27T08:04:57.234Z,1516
2018-02-27T08:06:11.818Z,1492
2018-02-27T08:07:25.563Z,1472
2018-02-27T08:08:40.335Z,1456
2018-02-27T08:09:54.556Z,1452
2018-02-27T08:11:08.600Z,1460
2018-02-27T08:12:23.096Z,1488
2018-02-27T08:13:37.332Z,1536
2018-02-27T08:14:50.860Z,1540
2018-02-27T08:16:05.092Z,1556
2018-02-27T08:17:19.197Z,1588
2018-02-27T08:18:33.434Z,1604
2018-02-27T08:19:47.433Z,1620
2018-02-27T08:21:01.461Z,1636
2018-02-27T08:22:15.952Z,1652
2018-02-27T08:23:30.120Z,1664
2018-02-27T08:24:44.402Z,1680
2018-02-27T08:25:58.636Z,1688
2018-02-27T08:27:12.412Z,1692
2018-02-27T08:28:26.891Z,1716
2018-02-27T08:29:40.968Z,1712
2018-02-27T08:30:55.274Z,1712
2018-02-27T08:32:09.545Z,1720
2018-02-27T08:33:23.547Z,1740
2018-02-27T08:34:37.839Z,1776
2018-02-27T08:35:52.393Z,1796
2018-02-27T08:37:06.477Z,1824
2018-02-27T08:38:20.765Z,1840
2018-02-27T08:39:35.069Z,1852
2018-02-27T08:40:49.564Z,1868
2018-02-27T08:42:03.867Z,1884
2018-02-27T08:43:17.636Z,1904
2018-02-27T08:44:31.905Z,1936
2018-02-27T08:45:45.917Z,1960
2018-02-27T08:47:00.152Z,1968
2018-02-27T08:48:13.692Z,1980
2018-02-27T08:49:27.914Z,1992
2018-02-27T08:50:41.960Z,2000
2018-02-27T08:51:55.974Z,2000
2018-02-27T08:53:09.997Z,2012
2018-02-27T08:54:24.279Z,2000
2018-02-27T08:55:38.519Z,1996
2018-02-27T08:56:53.405Z,1984
2018-02-27T08:58:06.965Z,1984
2018-02-27T08:59:20.983Z,1988
2018-02-27T09:00:35.521Z,1976
2018-02-27T09:01:50.112Z,1912
2018-02-27T09:03:04.378Z,1840
2018-02-27T09:04:18.159Z,1768
2018-02-27T09:05:32.424Z,1736
2018-02-27T09:06:46.994Z,1744
2018-02-27T09:08:01.242Z,1768
2018-02-27T09:09:15.260Z,1780
2018-02-27T09:10:29.062Z,1812
2018-02-27T09:11:43.336Z,1820
2018-02-27T09:12:57.411Z,1812
2018-02-27T09:14:11.649Z,1832
2018-02-27T09:15:25.411Z,1840
2018-02-27T09:16:39.389Z,1864
2018-02-27T09:17:53.164Z,1880
2018-02-27T09:19:07.476Z,1896
2018-02-27T09:20:21.929Z,1908
2018-02-27T09:21:36.342Z,1912
2018-02-27T09:22:50.080Z,1924
2018-02-27T09:24:04.144Z,1908
2018-02-27T09:25:18.475Z,1904
2018-02-27T09:26:32.512Z,1896
2018-02-27T09:27:45.789Z,1896
2018-02-27T09:28:59.990Z,1908
2018-02-27T09:30:13.705Z,1916
2018-02-27T09:31:28.796Z,1932
2018-02-27T09:32:42.799Z,1948
2018-02-27T09:33:57.307Z,1916
2018-02-27T09:35:11.363Z,1880
2018-02-27T09:36:25.891Z,1848
2018-02-27T09:37:40.090Z,1824
2018-02-27T09:38:54.942Z,1808
2018-02-27T09:40:09.203Z,1864
2018-02-27T09:41:23.733Z,1888
2018-02-27T09:42:37.505Z,1900
2018-02-27T09:43:51.819Z,1916
2018-02-27T09:45:05.585Z,1892
2018-02-27T09:46:20.085Z,1924
2018-02-27T09:47:34.070Z,1920
2018-02-27T09:48:47.828Z,1924
2018-02-27T09:50:02.146Z,1912
2018-02-27T09:51:16.388Z,1916
2018-02-27T09:52:30.350Z,1936
2018-02-27T09:53:44.590Z,1952
2018-02-27T09:54:58.624Z,1964
2018-02-27T09:56:13.425Z,1960
2018-02-27T09:57:27.637Z,1960
2018-02-27T09:58:41.946Z,1956
2018-02-27T09:59:56.262Z,1956
2018-02-27T10:01:10.529Z,1976
2018-02-27T10:02:24.532Z,1988
2018-02-27T10:03:38.897Z,2000
2018-02-27T10:05:07.819Z,2012
2018-02-27T10:06:22.936Z,2016
2018-02-27T10:07:37.228Z,2024
2018-02-27T10:08:51.745Z,2036
2018-02-27T10:10:05.518Z,2056
2018-02-27T10:11:19.292Z,2072
2018-02-27T10:12:33.545Z,2076
2018-02-27T10:13:48.372Z,2072
2018-02-27T10:15:02.396Z,2080
2018-02-27T10:16:16.906Z,2080
2018-02-27T10:17:30.476Z,2088
2018-02-27T10:18:44.988Z,2092
2018-02-27T10:19:59.540Z,2108
2018-02-27T10:21:13.337Z,2104
2018-02-27T10:22:27.357Z,2108
2018-02-27T10:23:41.837Z,2108
2018-02-27T10:24:56.328Z,2104
2018-02-27T10:26:10.384Z,2100
2018-02-27T10:27:24.185Z,2092
2018-02-27T10:28:38.572Z,2080
2018-02-27T10:29:52.589Z,2088
2018-02-27T10:31:07.169Z,2104
2018-02-27T10:32:22.020Z,2100
2018-02-27T10:33:36.574Z,2096
2018-02-27T10:34:50.824Z,2100
2018-02-27T10:36:05.070Z,2108
2018-02-27T10:37:19.858Z,2104
2018-02-27T10:38:34.411Z,2100
2018-02-27T10:39:48.693Z,2100
2018-02-27T10:41:03.449Z,2108
2018-02-27T10:42:17.223Z,2108
2018-02-27T10:43:31.006Z,2112
2018-02-27T10:44:45.275Z,2116
2018-02-27T10:45:59.525Z,2080
2018-02-27T10:47:13.991Z,2088
2018-02-27T10:48:28.262Z,2100
2018-02-27T10:49:42.492Z,2104
2018-02-27T10:50:57.032Z,2100
2018-02-27T10:52:11.569Z,2100
2018-02-27T10:53:26.047Z,2088
2018-02-27T10:54:40.075Z,2100
2018-02-27T10:55:54.562Z,2116
2018-02-27T10:57:09.375Z,2124
2018-02-27T10:58:24.004Z,2120
2018-02-27T10:59:38.036Z,2120
2018-02-27T11:00:52.332Z,2124
2018-02-27T11:02:06.609Z,2128
2018-02-27T11:03:20.900Z,2124
2018-02-27T11:04:34.906Z,2120
2018-02-27T11:05:48.926Z,2108
2018-02-27T11:07:03.705Z,2104
2018-02-27T11:08:17.709Z,2092
2018-02-27T11:09:31.914Z,2064
2018-02-27T11:10:46.407Z,2036
2018-02-27T11:12:00.953Z,2020
2018-02-27T11:13:15.216Z,2020
2018-02-27T11:14:29.719Z,2024
2018-02-27T11:15:44.472Z,2036
2018-02-27T11:16:58.020Z,2004
2018-02-27T11:18:12.497Z,1988
2018-02-27T11:19:26.973Z,1996
2018-02-27T11:20:41.236Z,1996
2018-02-27T11:21:55.760Z,2000
2018-02-27T11:23:10.479Z,2000
2018-02-27T11:24:24.449Z,1988
2018-02-27T11:25:38.695Z,1976
2018-02-27T11:26:53.195Z,1960
2018-02-27T11:28:07.502Z,1952
2018-02-27T11:29:21.271Z,1952
2018-02-27T11:30:35.564Z,1944
2018-02-27T11:31:49.329Z,1940
2018-02-27T11:33:03.833Z,1932
2018-02-27T11:34:18.399Z,1932
2018-02-27T11:35:31.661Z,1936
2018-02-27T11:36:44.903Z,1940
2018-02-27T11:37:59.236Z,1940
2018-02-27T11:39:12.992Z,1940
2018-02-27T11:40:27.696Z,1944
2018-02-27T11:41:41.254Z,1956
2018-02-27T11:42:55.710Z,1960
2018-02-27T11:44:10.258Z,1968
2018-02-27T11:45:24.261Z,1972
2018-02-27T11:46:38.351Z,1980
2018-02-27T11:47:52.853Z,1976
2018-02-27T11:49:07.404Z,1976
2018-02-27T11:50:22.207Z,1976
2018-02-27T11:51:36.725Z,1980
2018-02-27T11:52:50.537Z,1988
2018-02-27T11:54:04.316Z,1988
2018-02-27T11:55:18.998Z,1992
2018-02-27T11:56:33.315Z,2004
2018-02-27T11:57:47.595Z,2004
2018-02-27T11:59:02.179Z,2012
2018-02-27T12:00:16.020Z,2024
2018-02-27T12:01:30.274Z,2028
2018-02-27T12:02:44.144Z,2024
2018-02-27T12:03:58.418Z,2020
2018-02-27T12:05:13.274Z,2012
2018-02-27T12:06:27.562Z,2012
2018-02-27T12:07:41.841Z,2012
2018-02-27T12:08:55.842Z,2008
2018-02-27T12:10:10.114Z,2000
2018-02-27T12:11:24.393Z,1996
2018-02-27T12:12:38.422Z,1988
2018-02-27T12:13:52.205Z,1984
2018-02-27T12:15:06.784Z,1980
2018-02-27T12:16:21.184Z,1980
2018-02-27T12:17:35.983Z,1976
2018-02-27T12:18:50.483Z,1972
2018-02-27T12:20:04.515Z,1952
2018-02-27T12:21:17.827Z,1948
2018-02-27T12:22:31.949Z,1936
2018-02-27T12:23:46.772Z,1936
2018-02-27T12:25:01.287Z,1932
2018-02-27T12:26:15.573Z,1936
2018-02-27T12:27:29.859Z,1936
2018-02-27T12:28:44.151Z,1936
2018-02-27T12:29:58.708Z,1932
2018-02-27T12:31:13.183Z,1936
2018-02-27T12:32:27.947Z,1944
2018-02-27T12:33:42.487Z,1944
2018-02-27T12:34:56.974Z,1940
2018-02-27T12:36:11.528Z,1932
2018-02-27T12:37:26.031Z,1928
2018-02-27T12:38:40.363Z,1928
2018-02-27T12:39:54.383Z,1936
2018-02-27T12:41:08.631Z,1936
2018-02-27T12:42:22.923Z,1932
2018-02-27T12:43:37.441Z,1928
2018-02-27T12:44:52.218Z,1932
2018-02-27T12:46:06.772Z,1920
2018-02-27T12:47:20.816Z,1912
2018-02-27T12:48:35.640Z,1912
2018-02-27T12:49:50.282Z,1908
2018-02-27T12:51:04.334Z,1904
2018-02-27T12:52:18.849Z,1904
2018-02-27T12:53:32.892Z,1900
2018-02-27T12:54:47.764Z,1892
2018-02-27T12:56:01.084Z,1888
2018-02-27T12:57:15.127Z,1884
2018-02-27T12:58:29.481Z,1880
2018-02-27T12:59:44.020Z,1876
2018-02-27T13:00:58.333Z,1868
2018-02-27T13:02:12.843Z,1872
2018-02-27T13:03:27.123Z,1876
2018-02-27T13:04:41.705Z,1884
2018-02-27T13:05:56.208Z,1880
2018-02-27T13:07:10.781Z,1888
2018-02-27T13:08:25.071Z,1888
2018-02-27T13:09:39.586Z,1888
2018-02-27T13:10:53.343Z,1888
2018-02-27T13:12:07.355Z,1888
2018-02-27T13:13:21.812Z,1884
2018-02-27T13:14:35.180Z,1876
2018-02-27T13:15:49.507Z,1880
2018-02-27T13:17:03.829Z,1876
2018-02-27T13:18:18.613Z,1856
2018-02-27T13:19:33.528Z,1844
2018-02-27T13:20:47.394Z,1828
2018-02-27T13:22:02.211Z,1836
2018-02-27T13:23:16.823Z,1840
2018-02-27T13:24:31.440Z,1848
2018-02-27T13:25:46.129Z,1844
2018-02-27T13:27:00.414Z,1844
2018-02-27T13:28:14.709Z,1840
2018-02-27T13:29:29.214Z,1828
2018-02-27T13:30:42.944Z,1820
2018-02-27T13:31:57.799Z,1816
2018-02-27T13:33:12.060Z,1808
2018-02-27T13:34:26.324Z,1808
2018-02-27T13:35:40.370Z,1804
2018-02-27T13:36:54.183Z,1792
2018-02-27T13:38:08.761Z,1792
2018-02-27T13:39:22.300Z,1796
2018-02-27T13:40:36.590Z,1788
2018-02-27T13:41:51.386Z,1776
2018-02-27T13:43:05.735Z,1760
2018-02-27T13:44:20.554Z,1760
2018-02-27T13:45:35.087Z,1748
2018-02-27T13:46:48.122Z,1756
2018-02-27T13:48:02.211Z,1760
2018-02-27T13:49:15.363Z,1756
2018-02-27T13:50:37.392Z,1752
2018-02-27T13:51:51.883Z,1748
2018-02-27T13:53:05.859Z,1744
2018-02-27T13:54:19.941Z,1744
2018-02-27T13:55:33.951Z,1744
2018-02-27T13:56:48.312Z,1740
2018-02-27T13:58:02.688Z,1736
2018-02-27T13:59:16.771Z,1728
2018-02-27T14:00:30.552Z,1724
2018-02-27T14:01:45.291Z,1712
2018-02-27T14:02:59.858Z,1720
2018-02-27T14:04:14.354Z,1712
2018-02-27T14:05:28.637Z,1716
2018-02-27T14:06:42.143Z,1712
2018-02-27T14:07:55.912Z,1712
2018-02-27T14:09:09.453Z,1704
2018-02-27T14:10:23.207Z,1704
2018-02-27T14:11:37.704Z,1708
2018-02-27T14:12:51.688Z,1712
2018-02-27T14:14:05.938Z,1712
2018-02-27T14:15:20.519Z,1716
2018-02-27T14:16:34.530Z,1736
2018-02-27T14:17:48.787Z,1728
2018-02-27T14:19:03.277Z,1712
2018-02-27T14:20:17.793Z,1704
2018-02-27T14:21:32.089Z,1696
2018-02-27T14:22:46.364Z,1680
2018-02-27T14:24:00.575Z,1672
2018-02-27T14:25:14.875Z,1676
2018-02-27T14:26:29.213Z,1672
2018-02-27T14:27:44.067Z,1664
2018-02-27T14:28:58.326Z,1660
2018-02-27T14:30:12.729Z,1664
2018-02-27T14:31:26.564Z,1660
2018-02-27T14:32:40.901Z,1660
2018-02-27T14:33:54.959Z,1656
2018-02-27T14:35:09.504Z,1652
2018-02-27T14:36:23.544Z,1648
2018-02-27T14:37:37.838Z,1640
2018-02-27T14:38:52.362Z,1632
2018-02-27T14:40:06.386Z,1628
2018-02-27T14:41:20.650Z,1620
2018-02-27T14:42:34.937Z,1616
2018-02-27T14:43:49.230Z,1608
2018-02-27T14:45:03.512Z,1596
2018-02-27T14:46:17.608Z,1592
2018-02-27T14:47:31.648Z,1580
2018-02-27T14:48:45.677Z,1576
2018-02-27T14:50:00.019Z,1568
2018-02-27T14:51:14.078Z,1560
2018-02-27T14:52:28.599Z,1548
2018-02-27T14:53:42.645Z,1544
2018-02-27T14:54:57.175Z,1536
2018-02-27T14:56:10.995Z,1536
2018-02-27T14:57:25.029Z,1524
2018-02-27T14:58:38.582Z,1520
2018-02-27T14:59:52.634Z,1508
2018-02-27T15:01:06.421Z,1504
2018-02-27T15:02:20.772Z,1496
2018-02-27T15:03:34.908Z,1492
2018-02-27T15:04:48.935Z,1484
2018-02-27T15:06:02.478Z,1480
2018-02-27T15:07:17.010Z,1472
2018-02-27T15:08:31.026Z,1464
2018-02-27T15:09:45.300Z,1460
2018-02-27T15:10:59.783Z,1452
2018-02-27T15:12:14.337Z,1444
2018-02-27T15:13:28.871Z,1436
2018-02-27T15:14:43.128Z,1428
2018-02-27T15:15:57.663Z,1420
2018-02-27T15:17:11.918Z,1408
2018-02-27T15:18:26.432Z,1396
2018-02-27T15:19:41.167Z,1388
2018-02-27T15:20:55.923Z,1376
2018-02-27T15:22:10.413Z,1368
2018-02-27T15:23:24.635Z,1356
2018-02-27T15:24:38.420Z,1340
2018-02-27T15:25:52.953Z,1324
2018-02-27T15:27:07.243Z,1316
2018-02-27T15:28:21.262Z,1304
2018-02-27T15:29:35.772Z,1296
2018-02-27T15:30:50.282Z,1284
2018-02-27T15:32:04.353Z,1268
2018-02-27T15:33:18.431Z,1248
2018-02-27T15:34:32.916Z,1236
2018-02-27T15:35:47.441Z,1232
2018-02-27T15:37:01.303Z,1220
2018-02-27T15:38:15.516Z,1208
2018-02-27T15:39:29.518Z,1200
2018-02-27T15:40:43.960Z,1188
2018-02-27T15:41:57.981Z,1172
2018-02-27T15:43:12.053Z,1160
2018-02-27T15:44:26.133Z,1148
2018-02-27T15:45:39.944Z,1136
2018-02-27T15:46:54.205Z,1128
2018-02-27T15:48:08.315Z,1116
2018-02-27T15:49:23.021Z,1100
2018-02-27T15:50:37.850Z,1088
2018-02-27T15:51:52.550Z,1076
2018-02-27T15:53:07.188Z,1060
2018-02-27T15:54:21.685Z,1048
2018-02-27T15:55:36.232Z,1036
2018-02-27T15:56:50.034Z,1020
2018-02-27T15:58:04.609Z,1000
2018-02-27T15:59:18.449Z,988
2018-02-27T16:00:32.227Z,972
2018-02-27T16:01:46.054Z,956
2018-02-27T16:03:00.334Z,948
2018-02-27T16:04:14.368Z,928
2018-02-27T16:05:28.864Z,916
2018-02-27T16:06:42.900Z,900
2018-02-27T16:07:57.511Z,880
2018-02-27T16:09:11.875Z,864
2018-02-27T16:10:26.483Z,840
2018-02-27T16:11:40.619Z,816
2018-02-27T16:12:54.643Z,796
2018-02-27T16:14:08.927Z,784
2018-02-27T16:15:23.219Z,768
2018-02-27T16:16:36.984Z,752
2018-02-27T16:17:50.064Z,732
2018-02-27T16:19:03.867Z,716
2018-02-27T16:20:18.631Z,696
2018-02-27T16:21:32.161Z,680
2018-02-27T16:22:45.723Z,664
2018-02-27T16:24:00.001Z,644
2018-02-27T16:25:14.554Z,624
2018-02-27T16:26:28.292Z,604
2018-02-27T16:27:42.560Z,588
2018-02-27T16:28:57.091Z,568
2018-02-27T16:30:11.384Z,548
2018-02-27T16:31:25.653Z,528
2018-02-27T16:32:40.246Z,508
2018-02-27T16:33:54.016Z,488
2018-02-27T16:35:07.552Z,468
2018-02-27T16:36:21.583Z,452
2018-02-27T16:37:35.674Z,428
2018-02-27T16:38:49.948Z,408
2018-02-27T16:40:04.540Z,388
2018-02-27T16:41:18.563Z,364
2018-02-27T16:42:32.830Z,344
2018-02-27T16:43:46.754Z,328
2018-02-27T16:45:01.030Z,304
2018-02-27T16:46:14.787Z,284
2018-02-27T16:47:29.343Z,268
2018-02-27T16:48:43.841Z,248
2018-02-27T16:49:57.592Z,232
2018-02-27T16:51:11.873Z,212
2018-02-27T16:52:26.740Z,196
2018-02-27T16:53:40.736Z,184
2018-02-27T16:54:54.790Z,164
2018-02-27T16:56:08.859Z,148
2018-02-27T16:57:22.391Z,136
2018-02-27T16:58:36.688Z,124
2018-02-27T16:59:51.047Z,108
2018-02-27T17:01:05.382Z,96
2018-02-27T17:02:20.225Z,84
2018-02-27T17:03:34.511Z,76
2018-02-27T17:04:48.581Z,64
2018-02-27T17:06:02.856Z,56
2018-02-27T17:07:17.195Z,48
2018-02-27T17:08:31.324Z,44
2018-02-27T17:09:45.178Z,36
2018-02-27T17:10:58.967Z,32
2018-02-27T17:12:13.556Z,28